Time;durP1;ratioP1;P1;durP2;ratioP2;P2;SDS_P1;SDS_P2;PMS_P1;PMS_P2;Temp;Humidity;BMP_temperature;BMP_pressure;BME280_temperature;BME280_humidity;BME280_pressure;Samples;Min_cycle;Max_cycle;Signal;HPM_P1;HPM_P2
2021/07/04 00:01:05;;;;;;;19.60;7.10;;;;;;;16.82;70.60;100021.53;126351;1093;22858;-62
2021/07/04 00:03:37;;;;;;;17.55;7.65;;;;;;;16.77;70.86;100025.18;126197;1093;22762;-63
2021/07/04 00:06:09;;;;;;;15.95;6.50;;;;;;;16.71;70.79;100013.20;126310;1092;22761;-62
2021/07/04 00:08:41;;;;;;;15.80;7.40;;;;;;;16.66;70.94;100018.87;126133;1093;22947;-63
2021/07/04 00:11:12;;;;;;;16.15;7.50;;;;;;;16.62;70.90;100027.63;126165;1093;22726;-63
2021/07/04 00:13:45;;;;;;;15.05;7.00;;;;;;;16.58;70.96;100024.33;126114;1093;27204;-62
2021/07/04 00:16:17;;;;;;;18.90;7.97;;;;;;;16.54;70.86;100023.85;126371;1093;24458;-61
2021/07/04 00:18:49;;;;;;;23.30;9.00;;;;;;;16.49;71.19;100024.65;126378;1092;22735;-62
2021/07/04 00:21:21;;;;;;;21.00;7.25;;;;;;;16.47;71.51;100020.82;126178;1092;27300;-61
2021/07/04 00:23:53;;;;;;;16.40;7.30;;;;;;;16.41;71.43;100015.22;126135;1093;22767;-62
2021/07/04 00:26:25;;;;;;;16.35;7.10;;;;;;;16.39;71.52;100019.87;126153;1093;22815;-62
2021/07/04 00:28:56;;;;;;;16.20;7.60;;;;;;;16.36;71.07;100018.86;126239;1092;22764;-62
2021/07/04 00:31:28;;;;;;;20.50;7.70;;;;;;;16.31;71.23;100013.25;126135;1093;27153;-61
2021/07/04 00:34:01;;;;;;;18.30;7.60;;;;;;;16.26;71.53;100009.20;126283;1093;22764;-63
2021/07/04 00:36:33;;;;;;;20.55;9.00;;;;;;;16.19;71.59;100010.53;126178;1091;27211;-62
2021/07/04 00:39:05;;;;;;;15.55;7.30;;;;;;;16.14;71.41;100016.95;126276;1091;22762;-63
2021/07/04 00:41:38;;;;;;;18.50;8.00;;;;;;;16.08;71.46;100007.79;126358;1093;24991;-62
2021/07/04 00:44:11;;;;;;;16.90;7.75;;;;;;;16.05;71.37;100008.84;126271;1093;22759;-62
2021/07/04 00:46:42;;;;;;;16.95;7.35;;;;;;;15.99;71.58;100007.35;126212;1093;22759;-62
2021/07/04 00:49:14;;;;;;;14.90;7.20;;;;;;;15.93;71.56;100006.63;126201;1093;25778;-62
2021/07/04 00:51:47;;;;;;;16.05;7.05;;;;;;;15.86;71.54;100012.80;126243;1093;22791;-62
2021/07/04 00:54:21;;;;;;;14.87;7.30;;;;;;;15.80;71.81;100006.44;126407;1092;22799;-62
2021/07/04 00:56:55;;;;;;;20.20;7.75;;;;;;;15.76;71.95;100005.95;126198;1092;22773;-62
2021/07/04 00:59:27;;;;;;;16.75;7.30;;;;;;;15.72;71.77;100006.23;126269;1092;22775;-62
2021/07/04 01:02:00;;;;;;;16.85;7.40;;;;;;;15.67;71.94;100012.65;126470;1091;24442;-62
2021/07/04 01:04:32;;;;;;;16.00;6.70;;;;;;;15.63;71.66;100012.16;126403;1092;22854;-62
2021/07/04 01:07:04;;;;;;;14.90;6.90;;;;;;;15.57;71.64;100008.61;126291;1092;23192;-61
2021/07/04 01:09:36;;;;;;;16.20;6.70;;;;;;;15.52;71.67;100009.39;126269;1093;22787;-63
2021/07/04 01:12:09;;;;;;;17.97;7.30;;;;;;;15.48;71.98;100017.34;126264;1092;24362;-62
2021/07/04 01:14:42;;;;;;;18.90;7.30;;;;;;;15.44;72.12;100014.03;126163;1093;22818;-62
2021/07/04 01:17:14;;;;;;;15.73;6.75;;;;;;;15.39;72.08;100004.30;126419;1092;22770;-64
2021/07/04 01:19:49;;;;;;;17.13;7.87;;;;;;;15.35;72.24;100005.88;126363;1092;24369;-63
2021/07/04 01:22:23;;;;;;;17.15;7.55;;;;;;;15.33;72.22;100009.19;126325;1093;22808;-62
2021/07/04 01:24:55;;;;;;;16.85;7.40;;;;;;;15.30;72.25;100010.23;126205;1092;22773;-62
2021/07/04 01:27:28;;;;;;;15.63;7.57;;;;;;;15.29;72.34;100003.07;126258;1093;24429;-62
2021/07/04 01:29:59;;;;;;;17.65;8.35;;;;;;;15.25;72.25;100008.20;126390;1092;22902;-60
2021/07/04 01:32:33;;;;;;;18.85;8.45;;;;;;;15.21;72.64;100010.52;126204;1091;24169;-62
2021/07/04 01:35:09;;;;;;;17.65;7.75;;;;;;;15.18;72.27;100011.56;126157;1093;22726;-62
2021/07/04 01:37:41;;;;;;;21.60;8.90;;;;;;;15.17;72.74;100009.25;126207;1092;22768;-62
2021/07/04 01:40:16;;;;;;;20.30;7.65;;;;;;;15.12;72.45;100005.20;126211;1092;22732;-62
2021/07/04 01:42:50;;;;;;;20.85;8.65;;;;;;;15.08;72.82;100013.11;126427;1093;22803;-62
2021/07/04 01:45:24;;;;;;;18.90;7.80;;;;;;;15.04;72.60;100009.05;126224;1092;22765;-62
2021/07/04 01:47:56;;;;;;;17.27;8.40;;;;;;;15.01;72.93;100013.66;126405;1093;24271;-61
2021/07/04 01:50:31;;;;;;;17.30;7.90;;;;;;;14.98;73.08;100009.05;126128;1092;23100;-62
2021/07/04 01:53:04;;;;;;;17.45;8.00;;;;;;;14.97;73.10;100001.91;126439;1092;22829;-63
2021/07/04 01:55:35;;;;;;;17.45;7.90;;;;;;;14.95;72.65;99998.08;126239;1091;22764;-62
2021/07/04 01:58:07;;;;;;;16.65;8.30;;;;;;;14.91;72.85;100003.20;126257;1092;22764;-62
2021/07/04 02:00:40;;;;;;;19.55;9.20;;;;;;;14.86;73.06;100001.92;126019;1093;22928;-62
2021/07/04 02:03:12;;;;;;;18.05;8.15;;;;;;;14.82;73.09;100009.86;126381;1093;22838;-61
2021/07/04 02:05:44;;;;;;;16.60;7.83;;;;;;;14.79;73.38;100001.70;126394;1093;24085;-60
2021/07/04 02:08:16;;;;;;;21.60;8.55;;;;;;;14.77;73.61;100002.22;127005;1093;24233;-62
2021/07/04 02:10:48;;;;;;;17.50;7.45;;;;;;;14.75;73.45;100009.63;126580;1093;27616;-61
2021/07/04 02:13:19;;;;;;;17.33;8.07;;;;;;;14.69;73.23;100008.87;126182;1092;22791;-62
2021/07/04 02:15:51;;;;;;;17.70;7.90;;;;;;;14.65;73.43;100002.75;126144;1092;22761;-63
2021/07/04 02:18:22;;;;;;;17.70;7.55;;;;;;;14.59;73.39;99999.92;126247;1093;24465;-62
2021/07/04 02:20:56;;;;;;;16.20;7.90;;;;;;;14.55;73.31;100011.43;126070;1093;22794;-62
2021/07/04 02:23:30;;;;;;;17.20;7.50;;;;;;;14.51;73.49;100007.34;126263;1093;22969;-65
2021/07/04 02:26:03;;;;;;;19.15;8.45;;;;;;;14.48;73.57;100011.19;126365;1092;22784;-63
2021/07/04 02:28:34;;;;;;;19.00;7.60;;;;;;;14.43;73.95;100015.52;126329;1093;22733;-60
2021/07/04 02:31:06;;;;;;;16.53;7.93;;;;;;;14.39;73.64;100014.24;126253;1091;27187;-60
2021/07/04 02:33:37;;;;;;;17.95;7.40;;;;;;;14.34;73.49;100018.58;126011;1091;22838;-58
2021/07/04 02:36:10;;;;;;;16.25;6.45;;;;;;;14.32;73.47;100026.75;125962;1093;24444;-62
2021/07/04 02:38:41;;;;;;;14.80;7.00;;;;;;;14.27;73.43;100023.91;126182;1093;27121;-62
2021/07/04 02:41:12;;;;;;;17.70;6.10;;;;;;;14.22;73.58;100021.86;126069;1093;27352;-62
2021/07/04 02:43:44;;;;;;;16.95;6.40;;;;;;;14.17;73.46;100019.83;126084;1092;22790;-62
2021/07/04 02:46:17;;;;;;;14.55;6.30;;;;;;;14.13;73.44;100022.13;126231;1093;26304;-61
2021/07/04 02:48:49;;;;;;;15.30;6.55;;;;;;;14.11;73.60;100014.19;126117;1093;27125;-61
2021/07/04 02:51:20;;;;;;;16.80;6.40;;;;;;;14.08;73.69;100018.03;126035;1093;22754;-61
2021/07/04 02:53:52;;;;;;;15.90;7.00;;;;;;;14.06;73.68;100014.97;126379;1093;22806;-60
2021/07/04 02:56:24;;;;;;;15.75;6.70;;;;;;;14.03;74.15;100018.77;125989;1093;22848;-62
2021/07/04 02:58:56;;;;;;;17.70;6.93;;;;;;;14.01;74.21;100012.91;126487;1092;27645;-61
2021/07/04 03:01:27;;;;;;;21.30;7.47;;;;;;;14.00;74.18;100010.61;126354;1093;22764;-61
2021/07/04 03:03:58;;;;;;;16.40;6.75;;;;;;;13.97;74.11;100017.23;126082;1092;22761;-62
2021/07/04 03:06:30;;;;;;;16.37;6.77;;;;;;;13.94;74.33;100012.64;126005;1092;27736;-61
2021/07/04 03:09:01;;;;;;;17.00;6.55;;;;;;;13.91;74.40;100008.03;126122;1093;22764;-66
2021/07/04 03:11:33;;;;;;;14.73;6.30;;;;;;;13.89;74.11;100013.39;126100;1093;22740;-60
2021/07/04 03:14:04;;;;;;;14.60;6.50;;;;;;;13.87;74.21;100013.13;126101;1093;22823;-60
2021/07/04 03:16:35;;;;;;;17.70;6.95;;;;;;;13.85;74.48;100007.27;125982;1092;22791;-61
2021/07/04 03:19:07;;;;;;;13.75;5.80;;;;;;;13.83;74.58;100009.81;126059;1092;26505;-62
2021/07/04 03:21:38;;;;;;;15.40;5.95;;;;;;;13.81;74.46;100013.13;125967;1093;22781;-60
2021/07/04 03:24:10;;;;;;;13.40;5.00;;;;;;;13.79;74.85;100018.48;125947;1093;23630;-60
2021/07/04 03:26:43;;;;;;;15.13;5.40;;;;;;;13.77;74.61;100015.42;126295;1093;22793;-60
2021/07/04 03:29:14;;;;;;;21.05;5.30;;;;;;;13.76;74.91;100022.28;126074;1092;27313;-63
2021/07/04 03:31:48;;;;;;;14.17;4.57;;;;;;;13.74;74.74;100025.61;126063;1092;22787;-61
2021/07/04 03:34:20;;;;;;;13.25;4.15;;;;;;;13.75;75.01;100024.35;126044;1093;27479;-60
2021/07/04 03:36:52;;;;;;;10.50;4.00;;;;;;;13.75;75.27;100029.96;126011;1092;22851;-60
2021/07/04 03:39:23;;;;;;;10.40;3.10;;;;;;;13.74;75.41;100031.22;125981;1092;22781;-61
2021/07/04 03:41:55;;;;;;;12.40;2.80;;;;;;;13.75;75.45;100029.19;126041;1092;22788;-62
2021/07/04 03:44:26;;;;;;;9.45;2.45;;;;;;;13.76;75.67;100034.28;126195;1093;22758;-62
2021/07/04 03:46:58;;;;;;;8.30;3.10;;;;;;;13.78;75.88;100023.32;126128;1092;28078;-62
2021/07/04 03:49:30;;;;;;;10.03;3.63;;;;;;;13.80;75.57;100034.06;126325;1093;22768;-61
2021/07/04 03:52:01;;;;;;;9.05;3.70;;;;;;;13.84;76.00;100031.00;126132;1093;24458;-61
2021/07/04 03:54:33;;;;;;;10.40;4.00;;;;;;;13.86;75.94;100034.84;126060;1092;22793;-61
2021/07/04 03:57:21;;;;;;;11.45;4.20;;;;;;;13.89;76.10;100033.81;126109;1092;22822;-62
2021/07/04 03:59:54;;;;;;;13.80;5.27;;;;;;;13.94;76.72;100043.52;126133;1092;22761;-60
2021/07/04 04:02:27;;;;;;;16.50;6.45;;;;;;;14.01;77.04;100035.36;126163;1093;25671;-62
2021/07/04 04:04:59;;;;;;;18.57;6.93;;;;;;;14.09;76.73;100039.20;126209;1093;22748;-63
2021/07/04 04:07:35;;;;;;;16.70;7.35;;;;;;;14.17;76.67;100039.48;126628;1093;27208;-61
2021/07/04 04:10:12;;;;;;;17.57;7.47;;;;;;;14.26;77.19;100039.98;126025;1093;22777;-63
2021/07/04 04:12:44;;;;;;;17.55;7.70;;;;;;;14.36;77.09;100040.55;126286;1091;23205;-62
2021/07/04 04:15:16;;;;;;;25.00;10.20;;;;;;;14.44;77.39;100035.95;126087;1092;22797;-62
2021/07/04 04:17:47;;;;;;;22.83;11.47;;;;;;;14.53;77.36;100036.45;126260;1092;27310;-61
2021/07/04 04:20:20;;;;;;;25.60;11.33;;;;;;;14.61;77.61;100033.14;126196;1093;22791;-61
2021/07/04 04:22:51;;;;;;;20.60;10.70;;;;;;;14.71;77.68;100035.16;126127;1093;22780;-61
2021/07/04 04:25:23;;;;;;;19.77;9.90;;;;;;;14.79;77.59;100032.61;126158;1093;22761;-60
2021/07/04 04:27:56;;;;;;;23.85;10.85;;;;;;;14.85;77.80;100042.56;126196;1092;25780;-62
2021/07/04 04:30:28;;;;;;;21.60;10.70;;;;;;;14.91;77.77;100037.70;125969;1092;24248;-62
2021/07/04 04:32:59;;;;;;;25.43;10.80;;;;;;;15.00;77.49;100036.67;125922;1093;22725;-60
2021/07/04 04:35:31;;;;;;;20.60;10.33;;;;;;;15.05;77.53;100028.20;125927;1093;22764;-60
2021/07/04 04:38:02;;;;;;;24.60;13.20;;;;;;;15.12;77.78;100033.31;125970;1093;27201;-60
2021/07/04 04:40:34;;;;;;;24.53;13.50;;;;;;;15.18;78.07;100031.25;125953;1093;28576;-60
2021/07/04 04:43:06;;;;;;;25.30;12.40;;;;;;;15.26;77.63;100035.05;125866;1093;24574;-61
2021/07/04 04:45:37;;;;;;;26.10;12.00;;;;;;;15.35;78.11;100031.94;126011;1092;22883;-61
2021/07/04 04:48:08;;;;;;;23.20;12.00;;;;;;;15.45;77.93;100029.65;126087;1092;22704;-60
2021/07/04 04:50:40;;;;;;;23.05;11.35;;;;;;;15.54;77.98;100040.59;126157;1093;24629;-61
2021/07/04 04:53:11;;;;;;;23.75;12.10;;;;;;;15.66;77.86;100035.69;125991;1093;27211;-61
2021/07/04 04:55:43;;;;;;;26.25;13.70;;;;;;;15.78;77.96;100032.30;126054;1093;26273;-62
2021/07/04 04:58:14;;;;;;;26.90;12.60;;;;;;;15.87;77.91;100031.98;125895;1093;24159;-62
2021/07/04 05:00:45;;;;;;;23.35;12.45;;;;;;;15.99;78.45;100030.62;125977;1093;22845;-61
2021/07/04 05:03:17;;;;;;;25.40;13.35;;;;;;;16.12;78.85;100021.58;125966;1093;22787;-60
2021/07/04 05:05:49;;;;;;;27.80;13.15;;;;;;;16.23;79.01;100023.55;126014;1093;26277;-60
2021/07/04 05:08:20;;;;;;;26.27;14.03;;;;;;;16.34;78.91;100038.34;125933;1091;22879;-59
2021/07/04 05:10:51;;;;;;;22.75;13.15;;;;;;;16.45;77.86;100037.48;125947;1093;22738;-61
2021/07/04 05:13:23;;;;;;;27.85;14.05;;;;;;;16.53;77.86;100036.39;126044;1093;22772;-61
2021/07/04 05:15:54;;;;;;;26.90;13.35;;;;;;;16.68;78.83;100038.84;126108;1092;22767;-63
2021/07/04 05:18:26;;;;;;;22.70;12.80;;;;;;;16.80;78.41;100041.03;126007;1092;22764;-60
2021/07/04 05:20:57;;;;;;;26.95;12.75;;;;;;;16.92;78.20;100036.06;125851;1093;26626;-61
2021/07/04 05:23:29;;;;;;;26.25;13.20;;;;;;;16.98;77.74;100037.53;125941;1093;22777;-59
2021/07/04 05:26:00;;;;;;;23.93;12.23;;;;;;;17.07;77.89;100044.12;125907;1092;22887;-59
2021/07/04 05:28:32;;;;;;;24.85;12.95;;;;;;;17.17;77.69;100036.83;125977;1093;22791;-60
2021/07/04 05:31:04;;;;;;;24.07;12.73;;;;;;;17.33;77.77;100033.81;126236;1093;25569;-62
2021/07/04 05:33:35;;;;;;;22.43;12.33;;;;;;;17.50;77.96;100031.59;126077;1093;26360;-64
2021/07/04 05:36:07;;;;;;;27.10;13.10;;;;;;;17.65;77.49;100028.30;125974;1093;22790;-62
2021/07/04 05:38:40;;;;;;;26.35;12.65;;;;;;;17.73;77.12;100026.42;126042;1093;22760;-63
2021/07/04 05:41:12;;;;;;;23.90;12.05;;;;;;;17.82;76.76;100026.02;126166;1093;27214;-62
2021/07/04 05:43:48;;;;;;;23.00;11.65;;;;;;;17.91;77.20;100027.70;126203;1093;27201;-63
2021/07/04 05:46:20;;;;;;;26.15;11.65;;;;;;;18.03;77.21;100027.02;126094;1093;22793;-62
2021/07/04 05:48:53;;;;;;;23.70;12.20;;;;;;;18.14;76.93;100032.50;126111;1093;22864;-62
2021/07/04 05:51:27;;;;;;;24.40;12.10;;;;;;;18.32;76.42;100026.05;126054;1093;26371;-62
2021/07/04 05:53:59;;;;;;;21.97;10.73;;;;;;;18.41;75.69;100025.66;125995;1093;22841;-61
2021/07/04 05:56:31;;;;;;;19.45;9.95;;;;;;;18.51;76.33;100026.03;126097;1092;22761;-61
2021/07/04 05:59:02;;;;;;;19.90;10.80;;;;;;;18.68;76.00;100031.41;126011;1092;28462;-61
2021/07/04 06:01:34;;;;;;;20.00;10.75;;;;;;;18.87;75.67;100035.67;126081;1093;25842;-61
2021/07/04 06:04:06;;;;;;;21.05;10.30;;;;;;;18.96;75.76;100031.66;125982;1093;22750;-61
2021/07/04 06:06:38;;;;;;;23.00;11.77;;;;;;;19.06;74.70;100032.76;126112;1093;22848;-60
2021/07/04 06:09:09;;;;;;;24.63;10.93;;;;;;;19.11;74.44;100037.56;126075;1093;22799;-59
2021/07/04 06:11:41;;;;;;;21.30;10.33;;;;;;;19.13;74.67;100032.13;126141;1093;26070;-61
2021/07/04 06:14:12;;;;;;;26.60;10.60;;;;;;;19.28;74.89;100032.35;126143;1093;25839;-63
2021/07/04 06:16:44;;;;;;;20.97;10.33;;;;;;;19.30;73.42;100021.25;126202;1093;22740;-62
2021/07/04 06:19:17;;;;;;;18.75;8.90;;;;;;;19.33;73.24;100018.11;126146;1093;27666;-62
2021/07/04 06:21:49;;;;;;;20.43;8.40;;;;;;;19.38;73.72;100015.71;126072;1093;22767;-61
2021/07/04 06:24:22;;;;;;;18.67;9.33;;;;;;;19.55;73.50;100022.56;126291;1093;22816;-66
2021/07/04 06:26:54;;;;;;;18.83;7.80;;;;;;;19.66;73.46;100027.98;126090;1093;25848;-62
2021/07/04 06:29:26;;;;;;;17.47;8.40;;;;;;;19.85;72.66;100027.83;126249;1092;22763;-61
2021/07/04 06:31:58;;;;;;;18.03;8.67;;;;;;;19.98;72.57;100022.91;126128;1093;22794;-63
2021/07/04 06:34:29;;;;;;;20.30;8.30;;;;;;;20.10;72.09;100026.23;126005;1093;22791;-62
2021/07/04 06:37:01;;;;;;;17.08;8.25;;;;;;;20.21;71.59;100028.84;126180;1093;22796;-61
2021/07/04 06:39:35;;;;;;;19.63;8.70;;;;;;;20.35;71.06;100030.30;126397;1092;26245;-63
2021/07/04 06:42:07;;;;;;;21.63;8.63;;;;;;;20.41;70.71;100022.42;126460;1092;22799;-63
2021/07/04 06:44:39;;;;;;;17.05;7.05;;;;;;;20.48;70.93;100016.08;125997;1093;26079;-62
2021/07/04 06:47:13;;;;;;;14.77;6.57;;;;;;;20.59;70.95;100021.45;125972;1093;22810;-62
2021/07/04 06:49:44;;;;;;;18.45;6.60;;;;;;;20.75;70.63;100013.84;126063;1093;24997;-62
2021/07/04 06:52:16;;;;;;;20.78;7.83;;;;;;;20.86;70.05;100017.14;125986;1093;22742;-62
2021/07/04 06:54:50;;;;;;;16.73;7.08;;;;;;;20.96;69.30;100011.71;125897;1093;22861;-60
2021/07/04 06:57:27;;;;;;;15.88;5.50;;;;;;;20.99;68.80;100010.61;126019;1092;22801;-61
2021/07/04 07:00:02;;;;;;;14.70;6.68;;;;;;;21.03;68.32;100011.05;126105;1093;27328;-61
2021/07/04 07:02:33;;;;;;;17.00;6.40;;;;;;;21.10;68.20;100016.02;126222;1093;22825;-62
2021/07/04 07:05:06;;;;;;;17.03;7.28;;;;;;;21.09;67.79;100014.48;125935;1092;23515;-63
2021/07/04 07:07:38;;;;;;;14.35;5.85;;;;;;;21.13;68.23;100008.45;126339;1093;22767;-62
2021/07/04 07:10:12;;;;;;;17.33;6.20;;;;;;;21.27;67.88;100009.88;125925;1093;22766;-62
2021/07/04 07:12:44;;;;;;;16.07;6.33;;;;;;;21.36;67.17;100012.19;126116;1093;27702;-63
2021/07/04 07:15:17;;;;;;;15.90;5.93;;;;;;;21.37;65.83;100008.81;125969;1092;22851;-62
2021/07/04 07:17:48;;;;;;;19.05;5.85;;;;;;;21.33;66.17;100005.55;126058;1093;25861;-64
2021/07/04 07:20:20;;;;;;;13.10;5.88;;;;;;;21.43;66.07;100008.64;125959;1093;22784;-62
2021/07/04 07:22:55;;;;;;;14.65;5.93;;;;;;;21.43;65.46;100011.48;125988;1093;22780;-63
2021/07/04 07:25:26;;;;;;;13.00;5.63;;;;;;;21.45;65.74;100006.77;125905;1093;22848;-62
2021/07/04 07:28:00;;;;;;;13.70;6.15;;;;;;;21.48;65.19;99999.18;125917;1093;22852;-63
2021/07/04 07:30:32;;;;;;;15.48;6.25;;;;;;;21.55;64.87;100002.08;125907;1093;27211;-61
2021/07/04 07:33:03;;;;;;;12.90;5.30;;;;;;;21.57;64.68;99990.91;125972;1091;26245;-62
2021/07/04 07:35:35;;;;;;;17.10;5.47;;;;;;;21.65;64.64;99990.94;125897;1093;22848;-62
2021/07/04 07:38:06;;;;;;;17.05;5.75;;;;;;;21.67;63.69;99989.05;125928;1093;22731;-62
2021/07/04 07:40:39;;;;;;;15.48;6.15;;;;;;;21.65;63.78;99988.86;125895;1093;26394;-62
2021/07/04 07:43:10;;;;;;;11.48;4.73;;;;;;;21.72;63.63;99984.53;125922;1093;22803;-63
2021/07/04 07:45:45;;;;;;;12.78;5.30;;;;;;;21.80;63.10;99993.08;125859;1093;22796;-63
2021/07/04 07:48:17;;;;;;;13.85;4.70;;;;;;;21.82;62.36;99982.70;126217;1093;24471;-65
2021/07/04 07:50:50;;;;;;;14.23;5.30;;;;;;;21.86;62.23;99988.00;125720;1093;22933;-63
2021/07/04 07:53:22;;;;;;;11.15;4.90;;;;;;;21.93;61.63;99987.28;126359;1093;22784;-63
2021/07/04 07:55:54;;;;;;;13.35;5.08;;;;;;;21.96;61.50;99983.30;125788;1092;22785;-64
2021/07/04 07:58:27;;;;;;;12.70;4.80;;;;;;;22.03;61.76;99979.72;125830;1093;22891;-63
2021/07/04 08:01:00;;;;;;;12.65;4.83;;;;;;;22.14;61.95;99982.22;126032;1093;26303;-63
2021/07/04 08:03:32;;;;;;;9.28;3.43;;;;;;;22.23;60.03;99987.33;126074;1093;25313;-64
2021/07/04 08:06:04;;;;;;;13.03;4.15;;;;;;;22.25;60.12;99981.84;126149;1093;22794;-66
2021/07/04 08:08:37;;;;;;;11.68;4.18;;;;;;;22.29;59.54;99971.61;125932;1092;27335;-63
2021/07/04 08:11:11;;;;;;;10.57;4.37;;;;;;;22.32;59.28;99969.73;125988;1093;22849;-63
2021/07/04 08:13:46;;;;;;;12.73;4.43;;;;;;;22.34;58.60;99967.84;125937;1093;26239;-63
2021/07/04 08:16:17;;;;;;;11.40;4.13;;;;;;;22.36;58.71;99967.27;125862;1093;25920;-63
2021/07/04 08:18:49;;;;;;;10.00;3.97;;;;;;;22.45;58.74;99966.70;125843;1093;26944;-63
2021/07/04 08:21:21;;;;;;;8.25;3.30;;;;;;;22.53;58.42;99964.63;126027;1093;23200;-62
2021/07/04 08:23:53;;;;;;;11.43;3.68;;;;;;;22.63;57.37;99961.98;126050;1093;22951;-62
2021/07/04 08:26:25;;;;;;;12.48;3.95;;;;;;;22.68;57.14;99961.78;125921;1093;22794;-65
2021/07/04 08:29:00;;;;;;;12.48;3.90;;;;;;;22.74;56.75;99964.45;126129;1093;26392;-62
2021/07/04 08:31:32;;;;;;;10.18;3.53;;;;;;;22.76;57.17;99956.84;125987;1092;22731;-63
2021/07/04 08:34:04;;;;;;;9.78;3.85;;;;;;;22.93;56.95;99962.70;125923;1093;23403;-63
2021/07/04 08:36:36;;;;;;;12.98;4.15;;;;;;;23.01;54.55;99957.02;125892;1091;22767;-62
2021/07/04 08:39:08;;;;;;;11.05;3.65;;;;;;;23.02;55.87;99956.44;125817;1093;27301;-62
2021/07/04 08:41:40;;;;;;;9.25;3.25;;;;;;;23.08;54.89;99956.98;125968;1093;22759;-62
2021/07/04 08:44:14;;;;;;;8.75;3.48;;;;;;;23.13;54.29;99958.13;125891;1093;22764;-63
2021/07/04 08:46:48;;;;;;;9.70;3.67;;;;;;;23.14;53.74;99948.23;125926;1093;22761;-63
2021/07/04 08:49:20;;;;;;;9.30;3.00;;;;;;;23.15;54.12;99947.65;126026;1092;22953;-62
2021/07/04 08:51:52;;;;;;;9.40;3.70;;;;;;;23.19;54.39;99942.34;126005;1093;25862;-64
2021/07/04 08:54:25;;;;;;;11.60;4.13;;;;;;;23.30;54.57;99935.45;125917;1093;24474;-63
2021/07/04 08:56:57;;;;;;;10.40;3.90;;;;;;;23.48;52.95;99942.08;126026;1093;24572;-63
2021/07/04 08:59:29;;;;;;;10.25;4.28;;;;;;;23.53;53.43;99944.70;126198;1093;26572;-62
2021/07/04 09:02:01;;;;;;;9.78;4.10;;;;;;;23.64;52.59;99941.42;126080;1093;26255;-63
2021/07/04 09:04:33;;;;;;;8.93;3.48;;;;;;;23.56;52.58;99945.64;126221;1092;27342;-63
2021/07/04 09:07:07;;;;;;;10.80;3.90;;;;;;;23.47;52.53;99940.55;125938;1093;24556;-63
2021/07/04 09:09:39;;;;;;;10.75;4.23;;;;;;;23.42;52.23;99941.53;125867;1093;22765;-64
2021/07/04 09:12:12;;;;;;;12.08;3.88;;;;;;;23.40;52.27;99938.50;126015;1092;22772;-63
2021/07/04 09:14:45;;;;;;;12.60;3.70;;;;;;;23.41;52.74;99940.00;125959;1093;25932;-66
2021/07/04 09:17:18;;;;;;;9.65;3.40;;;;;;;23.47;52.35;99943.39;125990;1093;22855;-64
2021/07/04 09:19:59;;;;;;;7.55;2.53;;;;;;;23.50;50.77;99940.17;125926;1093;22779;-61
2021/07/04 09:22:34;;;;;;;8.53;3.00;;;;;;;23.46;51.53;99944.73;126207;1092;22745;-62
2021/07/04 09:25:15;;;;;;;9.08;2.93;;;;;;;23.47;51.79;99941.31;128880;1091;22577;-63
2021/07/04 09:28:04;;;;;;;8.73;3.27;;;;;;;23.48;51.63;99931.44;125920;1091;22778;-61
2021/07/04 09:30:39;;;;;;;11.30;3.50;;;;;;;23.44;51.22;99936.02;125959;1093;22837;-62
2021/07/04 09:33:17;;;;;;;7.20;2.57;;;;;;;23.41;51.29;99934.30;126341;1093;22732;-61
2021/07/04 09:36:00;;;;;;;8.03;3.28;;;;;;;23.41;51.44;99937.16;126175;1093;23437;-62
2021/07/04 09:38:35;;;;;;;11.38;3.63;;;;;;;23.39;51.37;99939.82;125901;1093;25062;-63
2021/07/04 09:41:09;;;;;;;11.60;3.50;;;;;;;23.37;50.79;99933.94;126083;1093;22775;-61
2021/07/04 09:43:41;;;;;;;9.65;3.18;;;;;;;23.31;51.12;99937.74;126414;1093;22858;-62
2021/07/04 09:46:18;;;;;;;11.73;3.58;;;;;;;23.25;50.72;99928.66;126230;1093;22865;-61
2021/07/04 09:48:52;;;;;;;10.55;3.45;;;;;;;23.23;50.91;99934.17;126147;1092;22784;-61
2021/07/04 09:51:28;;;;;;;9.78;3.40;;;;;;;23.24;51.09;99929.97;126077;1093;22764;-62
2021/07/04 09:54:01;;;;;;;8.20;3.23;;;;;;;23.26;51.05;99918.77;126104;1092;25597;-61
2021/07/04 09:56:35;;;;;;;10.48;3.53;;;;;;;23.26;50.84;99915.91;126236;1093;27128;-61
2021/07/04 09:59:08;;;;;;;8.15;2.85;;;;;;;23.33;50.97;99916.48;126241;1093;27379;-62
2021/07/04 10:01:43;;;;;;;9.18;3.23;;;;;;;23.37;50.56;99914.00;126210;1092;23476;-62
2021/07/04 10:04:31;;;;;;;8.25;3.18;;;;;;;23.38;50.73;99912.68;126462;1093;26288;-62
2021/07/04 10:07:05;;;;;;;9.93;3.50;;;;;;;23.43;51.11;99915.30;126503;1093;26539;-61
2021/07/04 10:09:40;;;;;;;6.98;2.48;;;;;;;23.47;50.73;99917.75;127387;1093;22727;-68
2021/07/04 10:12:12;;;;;;;8.60;2.78;;;;;;;23.41;50.12;99920.83;126615;1092;22791;-59
2021/07/04 10:14:44;;;;;;;9.03;3.07;;;;;;;23.38;49.60;99918.38;126312;1091;22778;-62
2021/07/04 10:17:17;;;;;;;13.15;5.93;;;;;;;23.37;50.37;99916.84;126284;1093;22793;-63
2021/07/04 10:19:53;;;;;;;8.68;3.80;;;;;;;23.41;50.41;99915.13;126321;1093;22838;-60
2021/07/04 10:22:26;;;;;;;10.15;3.20;;;;;;;23.41;50.14;99914.36;126340;1093;26270;-63
2021/07/04 10:24:59;;;;;;;10.80;3.20;;;;;;;23.39;50.36;99908.48;126254;1093;27696;-61
2021/07/04 10:27:33;;;;;;;10.98;3.70;;;;;;;23.40;50.03;99907.16;126272;1093;22793;-62
2021/07/04 10:30:07;;;;;;;7.85;2.65;;;;;;;23.40;50.63;99899.38;126205;1092;29522;-62
2021/07/04 10:32:44;;;;;;;8.07;3.00;;;;;;;23.39;50.33;99895.00;126241;1091;25998;-59
2021/07/04 10:35:17;;;;;;;9.70;2.78;;;;;;;23.36;50.10;99890.45;126290;1091;27122;-62
2021/07/04 10:37:48;;;;;;;7.43;2.73;;;;;;;23.36;50.19;99892.56;126425;1092;25944;-66
2021/07/04 10:40:21;;;;;;;8.65;2.75;;;;;;;23.37;50.24;99891.21;126346;1091;22745;-62
2021/07/04 10:42:54;;;;;;;8.93;2.68;;;;;;;23.35;50.26;99893.88;126422;1092;22836;-60
2021/07/04 10:45:35;;;;;;;10.07;3.23;;;;;;;23.33;49.55;99903.01;126272;1092;22790;-62
2021/07/04 10:48:26;;;;;;;10.35;3.35;;;;;;;23.31;49.68;99894.25;126565;1093;22760;-61
2021/07/04 10:51:15;;;;;;;7.73;2.90;;;;;;;23.30;49.98;99896.34;126147;1092;22787;-60
2021/07/04 10:53:54;;;;;;;8.40;3.30;;;;;;;23.33;50.69;99890.85;126187;1091;22733;-59
2021/07/04 10:56:40;;;;;;;9.13;2.75;;;;;;;23.38;50.89;99887.81;126556;1092;22701;-61
2021/07/04 10:59:13;;;;;;;9.43;3.43;;;;;;;23.45;51.10;99887.00;126431;1092;22794;-60
2021/07/04 11:01:56;;;;;;;9.30;3.65;;;;;;;23.50;51.28;99882.42;126425;1093;23376;-61
2021/07/04 11:04:55;;;;;;;9.78;2.70;;;;;;;23.59;51.47;99874.00;126639;1093;22784;-61
2021/07/04 11:07:27;;;;;;;8.78;3.33;;;;;;;23.72;51.41;99867.27;125878;1096;22770;-61
2021/07/04 11:10:20;;;;;;;8.20;2.40;;;;;;;23.81;51.40;99867.42;125837;1093;26507;-62
2021/07/04 11:12:53;;;;;;;9.03;3.63;;;;;;;23.87;51.50;99867.18;125938;1093;27638;-63
2021/07/04 11:15:31;;;;;;;10.25;3.63;;;;;;;23.95;51.08;99874.34;125582;1093;22735;-61
2021/07/04 11:18:09;;;;;;;8.03;2.80;;;;;;;23.90;50.41;99868.85;125710;1096;27347;-60
2021/07/04 11:20:59;;;;;;;7.68;3.18;;;;;;;23.91;51.03;99865.44;125880;1093;25906;-61
2021/07/04 11:23:31;;;;;;;7.93;2.65;;;;;;;23.96;50.92;99867.29;125273;1096;24637;-60
2021/07/04 11:26:14;;;;;;;10.05;3.38;;;;;;;24.04;51.03;99867.28;125427;1095;24336;-61
2021/07/04 11:28:46;;;;;;;8.95;3.30;;;;;;;24.10;50.07;99870.66;125333;1096;22781;-61
2021/07/04 11:31:29;;;;;;;8.13;2.85;;;;;;;24.14;50.27;99871.00;125471;1096;26802;-60
2021/07/04 11:34:07;;;;;;;11.00;3.70;;;;;;;24.22;50.33;99854.58;125424;1096;22800;-59
2021/07/04 11:36:39;;;;;;;9.20;3.15;;;;;;;24.28;50.40;99855.09;125397;1096;22774;-61
2021/07/04 11:39:13;;;;;;;9.23;2.85;;;;;;;24.35;50.28;99856.37;125310;1096;22786;-62